Time;durP1;ratioP1;P1;durP2;ratioP2;P2;SDS_P1;SDS_P2;PMS_P1;PMS_P2;Temp;Humidity;BMP_temperature;BMP_pressure;BME280_temperature;BME280_humidity;BME280_pressure;Samples;Min_cycle;Max_cycle;Signal;HPM_P1;HPM_P2
2021/04/22 00:01:04;;;;;;;13.50;3.63;;;;;;;;;;10409305;28;20220;-78
2021/04/22 00:06:06;;;;;;;12.03;3.20;;;;;;;;;;10416452;28;20212;-77
2021/04/22 00:11:08;;;;;;;13.50;3.00;;;;;;;;;;10411900;28;23208;-77
2021/04/22 00:16:10;;;;;;;12.80;3.53;;;;;;;;;;10412710;28;20239;-77
2021/04/22 00:21:12;;;;;;;12.10;3.53;;;;;;;;;;10414409;28;20659;-77
2021/04/22 00:26:16;;;;;;;15.80;3.50;;;;;;;;;;10413127;28;20211;-78
2021/04/22 00:31:19;;;;;;;16.67;3.60;;;;;;;;;;10410232;28;20708;-77
2021/04/22 00:36:20;;;;;;;15.57;3.90;;;;;;;;;;10415505;28;20240;-77
2021/04/22 00:41:22;;;;;;;13.33;3.60;;;;;;;;;;10411673;28;20219;-78
2021/04/22 00:46:25;;;;;;;10.27;3.23;;;;;;;;;;10408414;28;20216;-76
2021/04/22 00:51:27;;;;;;;13.37;3.00;;;;;;;;;;10411933;28;20294;-75
2021/04/22 00:56:29;;;;;;;12.70;3.47;;;;;;;;;;10412944;28;20674;-76
2021/04/22 01:01:32;;;;;;;16.60;4.00;;;;;;;;;;10411069;28;20258;-76
2021/04/22 01:06:35;;;;;;;16.10;3.67;;;;;;;;;;10411680;28;20417;-78
2021/04/22 01:11:37;;;;;;;19.30;5.43;;;;;;;;;;10412381;28;20215;-76
2021/04/22 01:16:39;;;;;;;17.10;5.23;;;;;;;;;;10404860;28;20255;-76
2021/04/22 01:21:42;;;;;;;18.07;5.43;;;;;;;;;;10409403;28;20203;-76
2021/04/22 01:26:44;;;;;;;11.60;3.70;;;;;;;;;;10411182;28;20440;-78
2021/04/22 01:31:46;;;;;;;17.33;4.07;;;;;;;;;;10409332;28;20212;-76
2021/04/22 01:36:49;;;;;;;14.13;3.83;;;;;;;;;;10408696;28;20242;-76
2021/04/22 01:41:51;;;;;;;19.33;5.90;;;;;;;;;;10410497;28;20398;-76
2021/04/22 01:46:53;;;;;;;26.53;9.33;;;;;;;;;;10406825;28;20245;-77
2021/04/22 01:51:56;;;;;;;36.37;9.87;;;;;;;;;;10412964;28;20222;-76
2021/04/22 01:56:58;;;;;;;18.17;6.23;;;;;;;;;;10407865;28;20639;-76
2021/04/22 02:01:59;;;;;;;33.73;13.97;;;;;;;;;;10405931;28;20235;-76
2021/04/22 02:07:03;;;;;;;37.03;12.57;;;;;;;;;;10404616;28;20216;-76
2021/04/22 02:12:05;;;;;;;27.17;9.87;;;;;;;;;;10410781;28;20810;-76
2021/04/22 02:17:07;;;;;;;15.67;6.07;;;;;;;;;;10405016;28;20246;-76
2021/04/22 02:22:10;;;;;;;13.70;4.77;;;;;;;;;;10411805;28;20214;-76
2021/04/22 02:27:12;;;;;;;18.30;5.67;;;;;;;;;;10405464;28;20365;-77
2021/04/22 02:32:14;;;;;;;12.63;4.73;;;;;;;;;;10409622;28;20211;-78
2021/04/22 02:37:16;;;;;;;17.23;4.30;;;;;;;;;;10406772;28;20243;-76
2021/04/22 02:42:19;;;;;;;16.37;3.63;;;;;;;;;;10413215;28;20710;-76
2021/04/22 02:47:22;;;;;;;12.47;3.70;;;;;;;;;;10403408;28;20303;-76
2021/04/22 02:52:25;;;;;;;11.93;3.53;;;;;;;;;;10409336;28;20212;-76
2021/04/22 02:57:28;;;;;;;12.13;3.40;;;;;;;;;;10411349;28;20242;-76
2021/04/22 03:02:31;;;;;;;11.03;3.63;;;;;;;;;;10420137;28;20246;-76
2021/04/22 03:07:35;;;;;;;14.30;3.50;;;;;;;;;;10414605;28;20594;-76
2021/04/22 03:12:38;;;;;;;13.80;3.50;;;;;;;;;;10414252;28;20250;-77
2021/04/22 03:17:40;;;;;;;14.67;3.43;;;;;;;;;;10416705;28;20235;-77
2021/04/22 03:22:43;;;;;;;12.40;3.57;;;;;;;;;;10419982;28;20294;-76
2021/04/22 03:27:45;;;;;;;12.73;3.10;;;;;;;;;;10414095;28;20700;-77
2021/04/22 03:32:47;;;;;;;15.70;3.60;;;;;;;;;;10414496;28;20837;-77
2021/04/22 03:37:50;;;;;;;10.50;3.03;;;;;;;;;;10413860;28;20646;-77
2021/04/22 03:42:53;;;;;;;12.27;3.17;;;;;;;;;;10410798;28;20215;-76
2021/04/22 03:47:54;;;;;;;20.10;3.87;;;;;;;;;;10411990;28;20755;-76
2021/04/22 03:52:57;;;;;;;13.73;3.30;;;;;;;;;;10412357;28;20219;-76
2021/04/22 03:57:59;;;;;;;14.57;2.97;;;;;;;;;;10411844;28;20239;-76
2021/04/22 04:03:01;;;;;;;13.77;3.40;;;;;;;;;;10412822;28;21072;-76
2021/04/22 04:08:04;;;;;;;13.37;3.43;;;;;;;;;;10414827;28;20219;-76
2021/04/22 04:13:06;;;;;;;13.03;3.60;;;;;;;;;;10413249;28;20235;-76
2021/04/22 04:18:08;;;;;;;13.63;3.70;;;;;;;;;;10413763;28;20231;-77
2021/04/22 04:23:11;;;;;;;13.30;3.20;;;;;;;;;;10412362;28;20215;-76
2021/04/22 04:28:13;;;;;;;11.60;3.33;;;;;;;;;;10411554;28;20212;-76
2021/04/22 04:33:14;;;;;;;12.03;3.10;;;;;;;;;;10408042;28;20212;-76
2021/04/22 04:38:17;;;;;;;10.67;2.77;;;;;;;;;;10417516;28;20258;-77
2021/04/22 04:43:19;;;;;;;12.77;2.97;;;;;;;;;;10411044;28;20222;-75
2021/04/22 04:48:21;;;;;;;9.30;2.63;;;;;;;;;;10412300;28;20223;-77
2021/04/22 04:53:24;;;;;;;9.30;2.70;;;;;;;;;;10410202;28;20829;-79
2021/04/22 04:58:26;;;;;;;10.53;3.20;;;;;;;;;;10411645;28;20242;-75
2021/04/22 05:03:28;;;;;;;9.03;2.77;;;;;;;;;;10413149;28;20242;-74
2021/04/22 05:08:31;;;;;;;9.87;3.00;;;;;;;;;;10415138;28;20217;-74
2021/04/22 05:13:33;;;;;;;13.17;3.00;;;;;;;;;;10411984;28;20216;-74
2021/04/22 05:18:34;;;;;;;12.07;2.90;;;;;;;;;;10413762;28;20243;-73
2021/04/22 05:23:37;;;;;;;9.53;2.77;;;;;;;;;;10413858;28;20203;-74
2021/04/22 05:28:39;;;;;;;14.13;3.33;;;;;;;;;;10415673;28;20211;-74
2021/04/22 05:33:41;;;;;;;15.50;3.33;;;;;;;;;;10410005;28;20216;-74
2021/04/22 05:38:44;;;;;;;14.97;2.90;;;;;;;;;;10409272;28;20247;-74
2021/04/22 05:43:47;;;;;;;12.80;3.33;;;;;;;;;;10412082;28;20220;-74
2021/04/22 05:48:49;;;;;;;12.90;2.70;;;;;;;;;;10408209;28;20219;-74
2021/04/22 05:53:53;;;;;;;8.00;2.73;;;;;;;;;;10415214;28;20212;-74
2021/04/22 05:58:55;;;;;;;12.20;3.00;;;;;;;;;;10412680;28;20235;-74
2021/04/22 06:03:57;;;;;;;11.90;3.10;;;;;;;;;;10420543;28;20242;-74
2021/04/22 06:09:00;;;;;;;14.03;2.70;;;;;;;;;;10413313;28;20211;-74
2021/04/22 06:14:02;;;;;;;22.27;5.07;;;;;;;;;;10411676;28;20211;-74
2021/04/22 06:19:04;;;;;;;11.03;2.83;;;;;;;;;;10413978;28;20811;-74
2021/04/22 06:24:07;;;;;;;14.37;3.00;;;;;;;;;;10416534;28;20212;-74
2021/04/22 06:29:10;;;;;;;9.37;2.87;;;;;;;;;;10416329;28;20289;-74
2021/04/22 06:34:12;;;;;;;11.93;2.33;;;;;;;;;;10418483;28;20216;-74
2021/04/22 06:39:16;;;;;;;11.17;2.60;;;;;;;;;;10423697;28;20242;-73
2021/04/22 06:44:17;;;;;;;10.73;2.50;;;;;;;;;;10413994;28;20226;-73
2021/04/22 06:49:19;;;;;;;12.03;2.60;;;;;;;;;;10416969;28;20566;-73
2021/04/22 06:54:22;;;;;;;9.70;2.53;;;;;;;;;;10415559;28;20216;-72
2021/04/22 06:59:24;;;;;;;9.17;2.50;;;;;;;;;;10420519;28;20322;-76
2021/04/22 07:04:26;;;;;;;6.80;2.37;;;;;;;;;;10418848;28;20255;-73
2021/04/22 07:09:34;;;;;;;10.20;2.67;;;;;;;;;;10422603;28;20293;-74
2021/04/22 07:14:36;;;;;;;7.23;2.43;;;;;;;;;;10416605;28;20220;-73
2021/04/22 07:19:38;;;;;;;11.83;2.50;;;;;;;;;;10423625;28;20301;-73
2021/04/22 07:24:41;;;;;;;11.07;2.53;;;;;;;;;;10417597;28;20673;-73
2021/04/22 07:29:45;;;;;;;12.40;2.60;;;;;;;;;;10412540;28;20822;-73
2021/04/22 07:34:48;;;;;;;11.27;3.70;;;;;;;;;;10414738;28;20208;-73
2021/04/22 07:39:50;;;;;;;9.57;3.23;;;;;;;;;;10418990;28;20617;-73
2021/04/22 07:44:52;;;;;;;10.90;2.93;;;;;;;;;;10413968;28;20250;-73
2021/04/22 07:49:54;;;;;;;8.87;3.23;;;;;;;;;;10417705;28;20220;-73
2021/04/22 07:54:57;;;;;;;7.93;2.70;;;;;;;;;;10420351;28;20234;-72
2021/04/22 07:59:59;;;;;;;8.57;3.23;;;;;;;;;;10421174;28;20243;-73
2021/04/22 08:05:13;;;;;;;6.93;2.70;;;;;;;;;;10421003;28;20235;-72
2021/04/22 08:10:37;;;;;;;11.67;3.53;;;;;;;;;;10422150;28;20282;-73
2021/04/22 08:15:40;;;;;;;12.70;3.67;;;;;;;;;;10414977;28;20761;-72
2021/04/22 08:20:43;;;;;;;13.10;3.67;;;;;;;;;;10415116;28;20215;-73
2021/04/22 08:25:48;;;;;;;11.33;2.97;;;;;;;;;;10417594;28;20281;-75
2021/04/22 08:30:52;;;;;;;11.07;3.00;;;;;;;;;;10416697;28;20207;-73
2021/04/22 08:35:54;;;;;;;8.83;2.80;;;;;;;;;;10415845;28;20231;-73
2021/04/22 08:40:57;;;;;;;11.47;2.63;;;;;;;;;;10416931;28;20215;-73
2021/04/22 08:45:59;;;;;;;10.80;2.67;;;;;;;;;;10414812;28;20302;-73
2021/04/22 08:51:01;;;;;;;11.63;2.97;;;;;;;;;;10420252;28;20223;-74
2021/04/22 08:56:04;;;;;;;11.43;3.07;;;;;;;;;;10415063;28;20239;-73
2021/04/22 09:01:07;;;;;;;8.20;2.70;;;;;;;;;;10412179;28;20251;-74
2021/04/22 09:06:09;;;;;;;6.67;2.37;;;;;;;;;;10416809;28;20212;-73
2021/04/22 09:11:13;;;;;;;12.57;2.80;;;;;;;;;;10409825;28;20218;-75
2021/04/22 09:16:16;;;;;;;14.33;3.17;;;;;;;;;;10416195;28;20779;-73
2021/04/22 09:21:19;;;;;;;13.20;3.03;;;;;;;;;;10415400;28;21073;-73
2021/04/22 18:07:02;;;;;;;7.37;2.40;;;;;;;;;;12918162;22;841725;-75
2021/04/22 18:12:04;;;;;;;6.93;1.93;;;;;;;;;;12958086;22;20175;-76
2021/04/22 18:17:06;;;;;;;8.13;2.10;;;;;;;;;;12952686;22;20670;-76
2021/04/22 18:22:09;;;;;;;7.80;2.60;;;;;;;;;;12978874;22;20260;-75
2021/04/22 18:27:11;;;;;;;10.53;2.47;;;;;;;;;;12954110;22;20906;-75
2021/04/22 18:32:13;;;;;;;8.63;2.50;;;;;;;;;;12977429;22;20174;-76
2021/04/22 18:37:16;;;;;;;8.63;2.20;;;;;;;;;;12956827;22;20723;-75
2021/04/22 18:42:17;;;;;;;13.20;2.40;;;;;;;;;;12972686;22;20275;-77
2021/04/22 18:47:19;;;;;;;6.97;2.00;;;;;;;;;;12951431;22;20401;-76
2021/04/22 18:52:26;;;;;;;11.50;2.60;;;;;;;;;;12974368;22;20182;-77
2021/04/22 18:57:31;;;;;;;9.23;2.33;;;;;;;;;;12952269;22;20182;-76
2021/04/22 19:02:32;;;;;;;7.77;2.50;;;;;;;;;;12973297;22;20304;-75
2021/04/22 19:07:36;;;;;;;7.13;2.17;;;;;;;;;;12959396;22;20851;-76
2021/04/22 19:12:38;;;;;;;8.20;2.53;;;;;;;;;;12945013;22;20174;-76
2021/04/22 19:17:40;;;;;;;7.00;2.20;;;;;;;;;;12970769;22;21021;-76
2021/04/22 19:22:43;;;;;;;7.40;2.20;;;;;;;;;;12973100;22;20233;-76
2021/04/22 19:27:46;;;;;;;10.20;2.57;;;;;;;;;;12957786;22;20171;-77
2021/04/22 19:32:50;;;;;;;9.73;2.60;;;;;;;;;;12976049;22;20205;-77
2021/04/22 19:38:03;;;;;;;10.23;2.57;;;;;;;;;;12981199;22;20167;-75
2021/04/22 19:43:05;;;;;;;9.57;3.13;;;;;;;;;;12965745;22;20829;-76
2021/04/22 19:48:09;;;;;;;7.57;2.40;;;;;;;;;;12969920;22;20963;-76
2021/04/22 19:53:12;;;;;;;15.13;2.90;;;;;;;;;;12967541;22;20794;-76
2021/04/22 19:58:14;;;;;;;7.70;2.80;;;;;;;;;;12966974;22;20261;-76
2021/04/22 20:03:16;;;;;;;11.10;2.83;;;;;;;;;;12945041;22;20642;-76
2021/04/22 20:08:19;;;;;;;8.60;2.67;;;;;;;;;;12970448;22;20642;-76
2021/04/22 20:13:22;;;;;;;6.83;2.57;;;;;;;;;;12964953;22;20679;-75
2021/04/22 20:18:25;;;;;;;8.40;2.90;;;;;;;;;;12967507;22;20162;-75
2021/04/22 20:23:27;;;;;;;8.93;2.97;;;;;;;;;;12968856;22;20793;-74
2021/04/22 20:28:29;;;;;;;7.13;2.97;;;;;;;;;;12968244;22;20174;-75
2021/04/22 20:33:33;;;;;;;8.93;3.20;;;;;;;;;;12969457;22;20913;-76
2021/04/22 20:38:37;;;;;;;7.63;2.93;;;;;;;;;;12947196;22;20174;-74
2021/04/22 20:43:39;;;;;;;12.37;3.20;;;;;;;;;;12945923;22;20434;-75
2021/04/22 20:48:41;;;;;;;11.07;3.20;;;;;;;;;;12968320;22;20685;-75
2021/04/22 20:53:45;;;;;;;9.83;3.03;;;;;;;;;;12948709;22;20269;-75
2021/04/22 20:58:46;;;;;;;11.73;3.30;;;;;;;;;;12945202;22;20503;-75
2021/04/22 21:03:49;;;;;;;9.90;2.93;;;;;;;;;;12949177;22;20309;-74
2021/04/22 21:08:58;;;;;;;9.27;2.93;;;;;;;;;;12948254;22;20182;-74
2021/04/22 21:14:00;;;;;;;7.17;3.00;;;;;;;;;;12938672;22;20173;-74
2021/04/22 21:19:02;;;;;;;8.63;3.17;;;;;;;;;;12947120;22;20174;-75
2021/04/22 21:24:05;;;;;;;11.70;3.10;;;;;;;;;;12946349;22;20671;-74
2021/04/22 21:29:07;;;;;;;8.60;3.10;;;;;;;;;;12965119;22;20213;-74
2021/04/22 21:34:09;;;;;;;9.83;3.40;;;;;;;;;;12945803;22;20198;-74
2021/04/22 21:39:13;;;;;;;8.77;2.80;;;;;;;;;;12947007;22;20210;-75
2021/04/22 21:44:15;;;;;;;8.40;2.73;;;;;;;;;;12966874;22;20202;-75
2021/04/22 21:49:34;;;;;;;7.43;2.97;;;;;;;;;;12968822;22;20656;-75
2021/04/22 21:54:38;;;;;;;13.20;3.70;;;;;;;;;;12944340;22;20225;-75
2021/04/22 21:59:40;;;;;;;9.27;3.10;;;;;;;;;;12946292;22;20181;-74
2021/04/22 22:04:42;;;;;;;8.27;3.20;;;;;;;;;;12968089;22;20210;-75
2021/04/22 22:09:44;;;;;;;11.40;3.47;;;;;;;;;;12949013;22;20181;-74
2021/04/22 22:14:46;;;;;;;9.07;3.10;;;;;;;;;;12945105;22;20811;-75
2021/04/22 22:19:48;;;;;;;8.83;3.20;;;;;;;;;;12965028;22;20186;-75
2021/04/22 22:24:50;;;;;;;11.27;3.83;;;;;;;;;;12944248;22;20205;-75
2021/04/22 22:29:52;;;;;;;12.00;4.07;;;;;;;;;;12961235;22;20179;-75
2021/04/22 22:34:54;;;;;;;9.97;3.80;;;;;;;;;;12949022;22;20431;-74
2021/04/22 22:39:57;;;;;;;13.17;3.80;;;;;;;;;;12945664;22;20174;-74
2021/04/22 22:44:59;;;;;;;11.60;3.90;;;;;;;;;;12942711;22;20217;-74
2021/04/22 22:50:01;;;;;;;9.67;3.70;;;;;;;;;;12946453;22;20500;-74
2021/04/22 22:55:05;;;;;;;10.07;3.63;;;;;;;;;;12945129;22;20205;-74
2021/04/22 23:00:08;;;;;;;10.63;3.37;;;;;;;;;;12943013;22;20185;-75
2021/04/22 23:05:11;;;;;;;6.07;3.10;;;;;;;;;;12946768;22;20236;-75
2021/04/22 23:10:14;;;;;;;8.37;3.17;;;;;;;;;;12944674;22;20185;-75
2021/04/22 23:15:18;;;;;;;10.83;2.90;;;;;;;;;;12966706;22;20182;-76
2021/04/22 23:20:24;;;;;;;11.00;3.50;;;;;;;;;;12966077;22;20166;-75
2021/04/22 23:25:28;;;;;;;9.17;3.43;;;;;;;;;;12946660;22;20225;-74
2021/04/22 23:30:31;;;;;;;10.90;3.30;;;;;;;;;;12964749;22;20550;-74
2021/04/22 23:35:37;;;;;;;9.70;3.20;;;;;;;;;;12948682;22;20557;-74
2021/04/22 23:40:41;;;;;;;7.00;3.07;;;;;;;;;;12965551;22;20503;-74
2021/04/22 23:45:44;;;;;;;11.80;3.53;;;;;;;;;;12946312;22;20356;-75
2021/04/22 23:50:48;;;;;;;8.33;3.33;;;;;;;;;;12967911;22;20186;-74
2021/04/22 23:55:51;;;;;;;8.07;3.63;;;;;;;;;;12967328;22;20257;-74
